Time;durP1;ratioP1;P1;durP2;ratioP2;P2;SDS_P1;SDS_P2;PMS_P1;PMS_P2;Temp;Humidity;BMP_temperature;BMP_pressure;BME280_temperature;BME280_humidity;BME280_pressure;Samples;Min_cycle;Max_cycle;Signal;HPM_P1;HPM_P2
2022/11/03 07:33:17;;;;;;;11.65;7.15;;;6.90;99.90;;;;;;11186234;23;19921;-79
2022/11/03 07:38:22;;;;;;;10.10;6.60;;;7.00;99.90;;;;;;10314324;28;20527;-79
2022/11/03 07:43:29;;;;;;;9.73;5.80;;;7.10;99.90;;;;;;10336047;28;20188;-78
2022/11/03 07:48:39;;;;;;;10.73;5.97;;;7.30;99.90;;;;;;10290573;28;20062;-78
2022/11/03 07:53:46;;;;;;;9.40;5.95;;;7.30;99.90;;;;;;10255163;29;20461;-78
2022/11/03 07:58:51;;;;;;;10.63;6.53;;;7.20;99.90;;;;;;10254984;29;20063;-79
2022/11/03 08:03:59;;;;;;;9.68;5.70;;;7.20;99.90;;;;;;10263963;28;20472;-78
2022/11/03 08:09:02;;;;;;;9.18;5.57;;;7.40;99.90;;;;;;10294468;28;20047;-79
2022/11/03 08:14:04;;;;;;;7.75;5.45;;;7.60;99.90;;;;;;10272458;28;20133;-79
2022/11/03 08:19:07;;;;;;;8.80;5.53;;;7.70;99.90;;;;;;10288726;28;20082;-79
2022/11/03 08:24:09;;;;;;;8.82;5.40;;;7.90;99.90;;;;;;10288526;28;20057;-79
2022/11/03 08:29:11;;;;;;;8.18;5.22;;;8.10;99.90;;;;;;10252139;28;20087;-79
2022/11/03 08:34:14;;;;;;;9.38;5.15;;;8.20;99.90;;;;;;10247025;29;20113;-78
2022/11/03 08:39:16;;;;;;;8.45;4.82;;;8.40;99.90;;;;;;10251215;28;20058;-78
2022/11/03 08:44:18;;;;;;;9.27;5.82;;;8.60;99.90;;;;;;10287791;28;20456;-77
2022/11/03 08:49:21;;;;;;;29.90;16.00;;;8.70;99.90;;;;;;10253474;28;20500;-79
2022/11/03 08:54:23;;;;;;;10.18;6.30;;;8.90;99.90;;;;;;10247076;29;20082;-80
2022/11/03 08:59:25;;;;;;;10.77;5.65;;;9.00;99.90;;;;;;10246893;29;20059;-79
2022/11/03 09:04:28;;;;;;;9.32;5.70;;;9.10;99.90;;;;;;10247712;29;20070;-80
2022/11/03 09:09:30;;;;;;;8.68;5.47;;;9.20;99.90;;;;;;10277713;28;20086;-78
2022/11/03 09:14:32;;;;;;;9.70;5.65;;;9.30;99.90;;;;;;10286090;28;20152;-79
2022/11/03 09:19:36;;;;;;;10.60;5.97;;;9.40;99.90;;;;;;10286530;28;20053;-77
2022/11/03 09:24:38;;;;;;;9.52;5.50;;;9.40;99.90;;;;;;10292841;28;20428;-78
2022/11/03 09:29:40;;;;;;;12.43;6.20;;;9.60;99.90;;;;;;10292838;28;20503;-78
2022/11/03 09:34:44;;;;;;;9.10;5.97;;;9.80;99.90;;;;;;10294004;28;20066;-79
2022/11/03 09:39:47;;;;;;;10.52;5.82;;;10.00;99.90;;;;;;10257307;28;20137;-78
2022/11/03 09:44:50;;;;;;;11.18;5.75;;;10.20;99.90;;;;;;10254098;29;20461;-77
2022/11/03 09:49:54;;;;;;;9.27;5.32;;;10.20;99.90;;;;;;10270529;28;20392;-78
2022/11/03 09:54:55;;;;;;;10.77;5.40;;;10.40;99.90;;;;;;10266868;28;20126;-78
2022/11/03 09:59:57;;;;;;;10.15;5.18;;;10.50;99.90;;;;;;10259173;29;20043;-79
2022/11/03 10:05:02;;;;;;;12.90;5.25;;;10.60;99.90;;;;;;10256922;29;20051;-78
2022/11/03 10:10:06;;;;;;;12.32;5.40;;;10.70;99.90;;;;;;10253708;29;20055;-77
2022/11/03 10:15:15;;;;;;;11.38;6.10;;;10.80;99.90;;;;;;10253478;29;20044;-76
2022/11/03 10:20:22;;;;;;;13.35;6.82;;;10.80;99.90;;;;;;10289795;28;20057;-78
2022/11/03 10:25:37;;;;;;;11.13;6.07;;;11.00;99.90;;;;;;10283997;28;20051;-78
2022/11/03 10:30:57;;;;;;;9.25;5.13;;;11.00;99.90;;;;;;10292065;28;20098;-79
2022/11/03 10:36:02;;;;;;;11.68;5.18;;;11.00;99.90;;;;;;10290010;28;20053;-77
2022/11/03 10:41:12;;;;;;;9.98;5.28;;;11.00;99.90;;;;;;10293088;28;20137;-78
2022/11/03 10:46:18;;;;;;;8.00;4.90;;;11.20;99.90;;;;;;10290244;28;20058;-79
2022/11/03 10:51:22;;;;;;;10.05;5.55;;;11.40;99.90;;;;;;10292163;28;20121;-79
2022/11/03 10:56:24;;;;;;;9.00;5.30;;;11.50;99.90;;;;;;10292056;28;20098;-79
2022/11/03 11:01:26;;;;;;;8.73;5.13;;;11.60;99.90;;;;;;10256211;29;20059;-80
2022/11/03 11:06:31;;;;;;;9.18;5.07;;;11.70;99.90;;;;;;10256886;29;20528;-81
2022/11/03 11:11:32;;;;;;;8.15;4.70;;;11.80;99.90;;;;;;10257280;28;20115;-81
2022/11/03 11:16:50;;;;;;;10.07;4.53;;;11.80;99.90;;;;;;10257183;29;20110;-78
2022/11/03 11:22:02;;;;;;;9.05;4.80;;;11.90;99.90;;;;;;10254036;29;20055;-79
2022/11/03 11:27:57;;;;;;;9.75;5.00;;;12.00;99.90;;;;;;10278108;28;20061;-79
2022/11/03 11:33:00;;;;;;;9.00;4.68;;;12.10;99.90;;;;;;10289860;28;20381;-77
2022/11/03 11:39:06;;;;;;;8.27;4.65;;;12.30;99.90;;;;;;10288469;28;20059;-79
2022/11/03 11:44:51;;;;;;;9.68;5.07;;;12.30;99.90;;;;;;10274222;28;20082;-78
2022/11/03 11:50:31;;;;;;;9.35;5.03;;;12.50;99.90;;;;;;10298714;28;20109;-77
2022/11/03 11:55:41;;;;;;;8.93;4.78;;;12.50;99.90;;;;;;10300432;28;20074;-78
2022/11/03 12:00:58;;;;;;;10.95;5.40;;;12.60;99.90;;;;;;10300104;28;20063;-80
2022/11/03 12:06:02;;;;;;;22.83;11.35;;;12.60;99.90;;;;;;10295030;28;20058;-79
2022/11/03 12:11:07;;;;;;;10.60;5.28;;;12.60;99.90;;;;;;10293935;28;20087;-77
2022/11/03 12:16:11;;;;;;;12.55;5.70;;;12.60;99.90;;;;;;10294297;28;20055;-76
2022/11/03 12:21:47;;;;;;;10.32;5.55;;;12.60;99.90;;;;;;10286649;28;20102;-77
2022/11/03 12:26:49;;;;;;;9.35;5.40;;;12.60;99.90;;;;;;10289330;28;20086;-76
2022/11/03 12:31:51;;;;;;;10.00;5.13;;;12.60;99.90;;;;;;10286337;28;20050;-77
2022/11/03 12:36:54;;;;;;;12.20;6.05;;;12.60;99.90;;;;;;10289093;28;20114;-77
2022/11/03 12:41:56;;;;;;;8.43;5.35;;;12.60;99.90;;;;;;10290627;28;20108;-79
2022/11/03 12:46:58;;;;;;;9.82;6.40;;;12.70;99.90;;;;;;10294646;28;20042;-79
2022/11/03 12:52:05;;;;;;;10.63;5.97;;;12.60;99.90;;;;;;10296046;28;20054;-81
2022/11/03 12:57:07;;;;;;;11.30;6.10;;;12.60;99.90;;;;;;10257375;28;20102;-80
2022/11/03 13:02:11;;;;;;;11.02;6.65;;;12.70;99.90;;;;;;10294799;28;20086;-79
2022/11/03 13:07:14;;;;;;;13.88;7.13;;;12.70;99.90;;;;;;10293923;28;20086;-81
2022/11/03 13:12:31;;;;;;;14.57;7.55;;;12.70;99.90;;;;;;10294997;28;20079;-80
2022/11/03 13:17:33;;;;;;;15.38;7.63;;;12.70;99.90;;;;;;10306351;28;20047;-80
2022/11/03 13:22:37;;;;;;;12.40;7.30;;;12.60;99.90;;;;;;10293073;28;20081;-79
2022/11/03 13:27:39;;;;;;;15.70;7.97;;;12.60;99.90;;;;;;10283582;28;20062;-81
2022/11/03 13:32:41;;;;;;;13.75;7.60;;;12.60;99.90;;;;;;10282304;28;20059;-81
2022/11/03 13:37:44;;;;;;;13.65;7.63;;;12.70;99.90;;;;;;10253872;29;20130;-80
2022/11/03 13:42:46;;;;;;;14.20;8.13;;;12.70;99.90;;;;;;10255413;29;20082;-79
2022/11/03 13:47:49;;;;;;;12.40;7.55;;;12.70;99.90;;;;;;10254893;28;20080;-82
2022/11/03 13:52:52;;;;;;;12.98;7.32;;;12.70;99.90;;;;;;10253887;28;20043;-80
2022/11/03 13:57:54;;;;;;;11.90;6.90;;;12.70;99.90;;;;;;10252904;29;20106;-81
2022/11/03 14:02:56;;;;;;;13.90;8.05;;;12.70;99.90;;;;;;10236776;29;20118;-81
2022/11/03 14:08:00;;;;;;;12.93;6.70;;;12.80;99.90;;;;;;10255426;28;20049;-81
2022/11/03 14:13:03;;;;;;;13.48;7.20;;;12.80;99.90;;;;;;10258456;28;20051;-80
2022/11/03 14:18:05;;;;;;;12.38;6.50;;;12.70;99.90;;;;;;10258047;29;20047;-80
2022/11/03 14:23:08;;;;;;;11.88;6.82;;;12.60;99.90;;;;;;10258875;28;20167;-81
2022/11/03 14:28:10;;;;;;;12.68;6.75;;;12.60;99.90;;;;;;10257486;29;20114;-79
2022/11/03 14:33:12;;;;;;;12.43;7.07;;;12.60;99.90;;;;;;10257342;29;20098;-78
2022/11/03 14:38:16;;;;;;;14.32;6.90;;;12.70;99.90;;;;;;10257635;29;20509;-83
2022/11/03 14:43:18;;;;;;;11.60;6.80;;;12.70;99.90;;;;;;10257683;29;20485;-83
2022/11/03 14:48:20;;;;;;;13.75;7.28;;;12.70;99.90;;;;;;10257054;29;20492;-83
2022/11/03 14:53:23;;;;;;;14.00;7.35;;;12.70;99.90;;;;;;10258196;29;20047;-79
2022/11/03 14:58:25;;;;;;;14.88;7.55;;;12.60;99.90;;;;;;10263614;29;20055;-79
2022/11/03 15:03:28;;;;;;;12.63;5.90;;;12.60;99.90;;;;;;10259280;29;20054;-81
2022/11/03 15:08:31;;;;;;;10.90;5.05;;;12.60;99.90;;;;;;10258127;29;20496;-80
2022/11/03 15:13:33;;;;;;;10.77;4.78;;;12.60;99.90;;;;;;10255845;29;20053;-79
2022/11/03 15:18:35;;;;;;;9.75;4.93;;;12.70;99.90;;;;;;10255670;28;20106;-81
2022/11/03 15:23:38;;;;;;;7.18;3.22;;;12.70;99.90;;;;;;10255750;29;20528;-80
2022/11/03 15:28:41;;;;;;;5.72;2.42;;;12.70;99.90;;;;;;10256163;29;20054;-82
2022/11/03 15:33:43;;;;;;;8.80;2.50;;;12.80;99.90;;;;;;10245974;28;20531;-79
2022/11/03 15:38:46;;;;;;;6.35;2.72;;;12.80;99.90;;;;;;10241172;29;20062;-78
2022/11/03 15:43:49;;;;;;;5.03;2.50;;;12.90;99.90;;;;;;10246450;29;20048;-81
2022/11/03 15:48:53;;;;;;;5.20;2.80;;;13.00;99.90;;;;;;10248974;28;20047;-81
2022/11/03 15:53:57;;;;;;;5.05;2.80;;;12.90;99.90;;;;;;10250350;29;20047;-79
2022/11/03 15:58:59;;;;;;;5.90;2.67;;;12.90;99.90;;;;;;10249133;29;20429;-81
2022/11/03 16:04:01;;;;;;;5.80;2.42;;;13.00;99.90;;;;;;10248505;29;20126;-78
2022/11/03 16:09:06;;;;;;;10.63;3.20;;;13.00;99.90;;;;;;10248870;28;20476;-78
2022/11/03 16:14:07;;;;;;;4.32;2.15;;;13.10;99.50;;;;;;10247188;29;20048;-80
2022/11/03 16:19:09;;;;;;;4.25;2.30;;;13.20;99.00;;;;;;10239002;29;20051;-80
2022/11/03 16:24:14;;;;;;;5.45;2.85;;;13.20;98.90;;;;;;10244684;29;20485;-78
2022/11/03 16:29:16;;;;;;;6.88;2.67;;;13.20;99.20;;;;;;10247787;28;20083;-79
2022/11/03 16:34:18;;;;;;;4.80;2.65;;;13.20;98.90;;;;;;10251028;28;20131;-80
2022/11/03 16:39:21;;;;;;;5.22;2.42;;;13.20;98.70;;;;;;10252786;29;20079;-81
2022/11/03 16:44:23;;;;;;;5.38;2.13;;;13.20;98.30;;;;;;10251335;29;20043;-80
2022/11/03 16:49:25;;;;;;;5.22;2.78;;;13.30;98.30;;;;;;10250525;28;20090;-80
2022/11/03 16:54:28;;;;;;;5.57;2.92;;;13.30;98.30;;;;;;10252822;28;20047;-79
2022/11/03 16:59:30;;;;;;;7.65;2.33;;;13.20;98.40;;;;;;10259436;28;20055;-80
2022/11/03 17:04:32;;;;;;;5.53;2.58;;;13.30;98.00;;;;;;10263915;28;20051;-78
2022/11/03 17:09:35;;;;;;;6.45;2.60;;;13.40;97.90;;;;;;10241458;29;20074;-80
2022/11/03 17:14:37;;;;;;;4.57;2.20;;;13.40;97.80;;;;;;10243437;29;20319;-79
2022/11/03 17:19:39;;;;;;;5.05;2.20;;;13.50;97.90;;;;;;10251624;29;20047;-80
2022/11/03 17:24:45;;;;;;;5.68;2.40;;;13.50;97.60;;;;;;10246034;28;20105;-78
2022/11/03 17:29:50;;;;;;;4.65;2.20;;;13.50;97.50;;;;;;10222941;29;20109;-80
2022/11/03 17:34:53;;;;;;;5.00;2.60;;;13.50;98.00;;;;;;10283678;28;20083;-78
2022/11/03 17:39:58;;;;;;;6.68;3.00;;;13.50;98.60;;;;;;10290263;28;20110;-80
2022/11/03 17:45:00;;;;;;;5.07;2.70;;;13.40;98.80;;;;;;10287240;28;20050;-78
2022/11/03 17:50:01;;;;;;;6.50;2.70;;;13.30;98.80;;;;;;10287495;28;20180;-80
2022/11/03 17:55:19;;;;;;;4.70;2.50;;;13.30;99.00;;;;;;10296335;28;20054;-79
2022/11/03 18:00:22;;;;;;;7.20;3.25;;;13.30;98.70;;;;;;10285896;28;20465;-81
2022/11/03 18:05:27;;;;;;;4.72;2.40;;;13.40;98.30;;;;;;10297886;28;20077;-81
2022/11/03 18:10:33;;;;;;;6.18;3.47;;;13.40;98.40;;;;;;10298853;28;20061;-80
2022/11/03 18:15:37;;;;;;;6.55;2.95;;;13.40;98.60;;;;;;10295169;28;20397;-80
2022/11/03 18:20:45;;;;;;;5.80;3.03;;;13.40;98.10;;;;;;10293013;28;20519;-79
2022/11/03 18:25:49;;;;;;;5.28;2.78;;;13.40;98.30;;;;;;10307929;28;20046;-80
2022/11/03 18:30:54;;;;;;;5.03;2.90;;;13.40;98.20;;;;;;10327648;28;20065;-77
2022/11/03 18:35:56;;;;;;;5.00;2.72;;;13.50;98.20;;;;;;10306939;28;20081;-81
2022/11/03 18:41:00;;;;;;;5.82;3.10;;;13.50;98.00;;;;;;10332886;28;20113;-80
2022/11/03 18:46:02;;;;;;;6.35;3.33;;;13.50;98.30;;;;;;10313158;28;20114;-79
2022/11/03 18:51:04;;;;;;;5.95;3.42;;;13.40;99.10;;;;;;10279919;28;20552;-78
2022/11/03 18:56:12;;;;;;;8.50;3.53;;;13.40;99.20;;;;;;10287783;28;20165;-79
2022/11/03 19:01:24;;;;;;;6.97;3.47;;;13.40;99.40;;;;;;10293028;28;20050;-78
2022/11/03 19:06:26;;;;;;;9.15;3.85;;;13.40;99.60;;;;;;10290421;28;20531;-78
2022/11/03 19:11:29;;;;;;;7.00;3.72;;;13.40;99.70;;;;;;10289445;28;20070;-79
2022/11/03 19:16:33;;;;;;;8.02;3.78;;;13.20;99.70;;;;;;10291594;28;20078;-77
2022/11/03 19:21:35;;;;;;;6.95;3.58;;;13.30;99.90;;;;;;10286662;28;20548;-80
2022/11/03 19:26:45;;;;;;;8.13;3.63;;;13.50;99.50;;;;;;10328443;28;20058;-81
2022/11/03 19:31:48;;;;;;;6.60;3.55;;;13.40;99.20;;;;;;10289647;28;20492;-81
2022/11/03 19:36:52;;;;;;;6.38;3.63;;;13.30;99.90;;;;;;10276307;28;20049;-80
2022/11/03 19:47:18;;;;;;;7.55;3.70;;;13.30;99.90;;;;;;10325805;28;20416;-81
2022/11/03 19:52:26;;;;;;;6.50;3.20;;;13.40;99.70;;;;;;10312569;28;20055;-80
2022/11/03 19:57:30;;;;;;;7.65;4.63;;;13.40;99.90;;;;;;10280353;28;20050;-79
2022/11/03 20:02:32;;;;;;;11.68;6.15;;;13.40;99.90;;;;;;10299997;28;20393;-78
2022/11/03 20:07:35;;;;;;;10.45;6.07;;;13.10;99.90;;;;;;10306173;28;20042;-79
2022/11/03 20:12:38;;;;;;;11.43;5.80;;;13.20;99.90;;;;;;10282508;28;20047;-77
2022/11/03 20:17:40;;;;;;;10.32;5.18;;;13.20;99.90;;;;;;10294370;28;20495;-79
2022/11/03 20:22:46;;;;;;;8.85;4.95;;;13.10;99.90;;;;;;10300816;28;20133;-81
2022/11/03 20:27:50;;;;;;;10.30;5.85;;;13.10;99.90;;;;;;10290781;28;20138;-78
2022/11/03 20:32:52;;;;;;;9.00;5.70;;;13.10;99.90;;;;;;10280885;28;20484;-80
2022/11/03 20:37:58;;;;;;;9.80;5.80;;;13.10;99.90;;;;;;10290204;28;20102;-79
2022/11/03 20:43:02;;;;;;;12.43;6.45;;;13.10;99.90;;;;;;10300770;28;20058;-80
2022/11/03 20:48:11;;;;;;;12.73;6.18;;;13.10;99.90;;;;;;10317354;28;20105;-78
2022/11/03 20:53:15;;;;;;;10.55;5.88;;;13.00;99.90;;;;;;10333092;28;20085;-79
2022/11/03 20:58:19;;;;;;;9.48;5.65;;;13.00;99.90;;;;;;10302754;28;20118;-79
2022/11/03 21:03:25;;;;;;;9.15;5.07;;;13.00;99.90;;;;;;10318036;28;20050;-76
2022/11/03 21:08:26;;;;;;;9.52;5.40;;;12.90;99.90;;;;;;10316503;28;20075;-78
2022/11/03 21:13:30;;;;;;;10.55;6.07;;;12.70;99.90;;;;;;10291170;28;20050;-78
2022/11/03 21:23:51;;;;;;;9.90;5.97;;;12.60;99.90;;;;;;10287235;28;20055;-77
2022/11/03 21:28:55;;;;;;;9.25;6.30;;;12.60;99.90;;;;;;10303813;28;20529;-78
2022/11/03 21:33:57;;;;;;;9.48;6.43;;;12.70;99.90;;;;;;10307709;28;20505;-77
2022/11/03 21:38:58;;;;;;;11.57;6.05;;;12.70;99.90;;;;;;10292827;28;20140;-78
2022/11/03 21:44:17;;;;;;;9.77;6.10;;;12.60;99.90;;;;;;10304922;28;20046;-75
2022/11/03 21:54:40;;;;;;;10.75;5.30;;;12.60;99.90;;;;;;10319683;28;21191;-78
2022/11/03 21:59:43;;;;;;;8.30;5.32;;;12.60;99.90;;;;;;10286405;28;20556;-78
2022/11/03 22:04:45;;;;;;;6.57;3.88;;;12.50;99.90;;;;;;10311129;28;20061;-76
2022/11/03 22:09:47;;;;;;;4.55;2.47;;;12.50;99.90;;;;;;10315421;28;20098;-77
2022/11/03 22:36:25;;;;;;;5.65;2.88;;;12.40;99.90;;;;;;10293040;28;20051;-77
2022/11/03 22:46:48;;;;;;;6.97;2.20;;;12.30;99.90;;;;;;10299798;28;20038;-79
2022/11/03 22:51:50;;;;;;;4.05;1.98;;;12.20;99.90;;;;;;10294349;28;20086;-78
2022/11/03 22:56:52;;;;;;;3.58;1.65;;;12.20;99.90;;;;;;10316987;28;20050;-78
